createdAt,value
2022-08-16T00:04:59.744Z,100.00
2022-08-16T00:10:02.199Z,100.00
2022-08-16T00:15:11.594Z,100.00
2022-08-16T00:20:14.362Z,100.00
2022-08-16T00:25:18.672Z,100.00
2022-08-16T00:30:28.791Z,100.00
2022-08-16T00:35:34.815Z,100.00
2022-08-16T00:40:43.567Z,100.00
2022-08-16T00:46:33.262Z,100.00
2022-08-16T00:51:29.550Z,100.00
2022-08-16T00:56:58.075Z,100.00
2022-08-16T01:01:56.096Z,100.00
2022-08-16T01:07:02.303Z,100.00
2022-08-16T01:12:08.604Z,100.00
2022-08-16T01:17:14.976Z,100.00
2022-08-16T01:22:47.536Z,100.00
2022-08-16T01:27:57.467Z,100.00
2022-08-16T01:33:14.737Z,100.00
2022-08-16T01:38:30.826Z,100.00
2022-08-16T01:43:35.407Z,100.00
2022-08-16T01:48:37.659Z,100.00
2022-08-16T01:53:41.962Z,100.00
2022-08-16T01:59:03.992Z,100.00
2022-08-16T02:04:10.927Z,100.00
2022-08-16T02:09:14.565Z,100.00
2022-08-16T02:14:21.592Z,100.00
2022-08-16T02:19:59.114Z,100.00
2022-08-16T02:24:50.189Z,100.00
2022-08-16T02:30:05.049Z,100.00
2022-08-16T02:35:09.218Z,100.00
2022-08-16T02:40:16.367Z,100.00
2022-08-16T02:45:20.876Z,100.00
2022-08-16T02:50:53.976Z,100.00
2022-08-16T02:55:50.535Z,100.00
2022-08-16T03:00:55.953Z,100.00
2022-08-16T03:06:00.184Z,100.00
2022-08-16T03:11:02.012Z,100.00
2022-08-16T03:16:04.819Z,100.00
2022-08-16T03:21:06.520Z,100.00
2022-08-16T03:26:12.838Z,100.00
2022-08-16T03:31:15.551Z,100.00
2022-08-16T03:36:31.013Z,100.00
2022-08-16T03:41:50.388Z,100.00
2022-08-16T03:46:54.440Z,100.00
2022-08-16T03:52:06.798Z,100.00
2022-08-16T03:57:11.314Z,100.00
2022-08-16T04:02:22.567Z,100.00
2022-08-16T04:07:34.661Z,100.00
2022-08-16T04:12:53.904Z,100.00
2022-08-16T04:17:58.981Z,100.00
2022-08-16T04:23:01.392Z,100.00
2022-08-16T04:28:51.899Z,100.00
2022-08-16T04:33:27.683Z,100.00
2022-08-16T04:38:32.971Z,100.00
2022-08-16T04:43:34.995Z,100.00
2022-08-16T04:48:37.710Z,100.00
2022-08-16T04:53:45.005Z,100.00
2022-08-16T04:58:47.368Z,100.00
2022-08-16T05:04:00.569Z,100.00
2022-08-16T05:09:05.233Z,100.00
2022-08-16T05:14:08.097Z,100.00
2022-08-16T05:19:16.349Z,100.00
2022-08-16T05:24:38.161Z,100.00
2022-08-16T05:30:00.809Z,100.00
2022-08-16T05:35:10.995Z,100.00
2022-08-16T05:40:16.461Z,100.00
2022-08-16T05:45:22.176Z,100.00
2022-08-16T05:50:33.810Z,100.00
2022-08-16T05:55:40.874Z,100.00
2022-08-16T06:00:43.354Z,99.52
2022-08-16T06:05:45.076Z,96.59
2022-08-16T06:11:09.725Z,97.34
2022-08-16T06:16:17.808Z,93.81
2022-08-16T06:21:23.721Z,91.48
2022-08-16T06:26:37.060Z,90.25
2022-08-16T06:31:46.836Z,85.42
2022-08-16T06:36:51.738Z,81.77
2022-08-16T06:42:02.230Z,79.63
2022-08-16T06:47:22.815Z,78.41
2022-08-16T06:52:58.539Z,76.87
2022-08-16T06:57:47.125Z,75.22
2022-08-16T07:02:51.718Z,72.92
2022-08-16T07:07:54.332Z,70.00
2022-08-16T07:13:04.345Z,67.13
2022-08-16T07:18:13.249Z,63.52
2022-08-16T07:23:21.147Z,65.28
2022-08-16T07:28:39.697Z,62.08
2022-08-16T07:33:52.629Z,62.47
2022-08-16T07:39:00.060Z,57.24
2022-08-16T07:44:16.339Z,55.50
2022-08-16T07:49:19.573Z,54.30
2022-08-16T07:54:32.227Z,56.83
2022-08-16T07:59:46.064Z,62.14
2022-08-16T08:04:50.218Z,58.52
2022-08-16T08:09:52.447Z,57.17
2022-08-16T08:14:54.930Z,57.00
2022-08-16T08:19:56.620Z,59.27
2022-08-16T08:24:59.767Z,59.16
2022-08-16T08:30:49.610Z,57.36
2022-08-16T08:35:29.842Z,53.24
2022-08-16T08:40:33.326Z,55.54
2022-08-16T08:45:52.876Z,52.30
2022-08-16T08:50:55.781Z,53.53
2022-08-16T08:56:00.354Z,52.75
2022-08-16T09:01:04.320Z,47.93
2022-08-16T09:06:07.791Z,47.19
2022-08-16T09:11:15.842Z,45.00
2022-08-16T09:17:01.695Z,43.65
2022-08-16T09:21:43.697Z,43.70
2022-08-16T09:26:47.080Z,46.15
2022-08-16T09:31:57.070Z,48.91
2022-08-16T09:37:00.344Z,48.20
2022-08-16T09:42:02.121Z,44.03
2022-08-16T09:47:03.967Z,44.19
2022-08-16T09:52:12.132Z,44.54
2022-08-16T09:57:13.687Z,41.21
2022-08-16T10:02:26.509Z,43.76
2022-08-16T10:07:44.778Z,39.56
2022-08-16T10:12:56.813Z,40.06
2022-08-16T10:18:01.683Z,42.25
2022-08-16T10:23:06.780Z,44.52
2022-08-16T10:28:27.942Z,44.80
2022-08-16T10:33:33.789Z,44.44
2022-08-16T10:38:38.374Z,38.58
2022-08-16T10:43:42.040Z,37.42
2022-08-16T10:48:47.046Z,35.56
2022-08-16T10:53:48.783Z,36.26
2022-08-16T10:58:52.890Z,36.32
2022-08-16T11:03:57.446Z,34.79
2022-08-16T11:14:21.012Z,32.83
2022-08-16T11:19:22.937Z,35.69
2022-08-16T11:24:39.896Z,35.39
2022-08-16T11:29:43.646Z,32.06
2022-08-16T11:35:11.002Z,30.29
2022-08-16T11:40:08.098Z,30.77
2022-08-16T11:45:11.075Z,30.71
2022-08-16T11:50:13.505Z,28.92
2022-08-16T11:55:15.138Z,27.84
2022-08-16T12:00:33.561Z,29.21
2022-08-16T12:05:40.472Z,29.47
2022-08-16T12:10:43.769Z,28.30
2022-08-16T12:15:47.502Z,28.49
2022-08-16T12:20:49.629Z,29.13
2022-08-16T12:25:51.334Z,34.55
2022-08-16T12:30:53.838Z,32.92
2022-08-16T12:35:55.401Z,32.06
2022-08-16T12:40:57.389Z,33.16
2022-08-16T12:45:59.170Z,34.41
2022-08-16T12:51:10.906Z,32.46
2022-08-16T12:56:25.386Z,30.23
2022-08-16T13:01:33.482Z,28.20
2022-08-16T13:06:36.006Z,27.38
2022-08-16T13:11:41.429Z,26.84
2022-08-16T13:16:51.030Z,27.49
2022-08-16T13:21:52.609Z,25.12
2022-08-16T13:26:54.254Z,25.31
2022-08-16T13:31:56.016Z,25.01
2022-08-16T13:36:57.811Z,25.41
2022-08-16T13:42:00.672Z,26.00
2022-08-16T13:47:02.523Z,25.93
2022-08-16T13:52:04.745Z,29.08
2022-08-16T13:57:11.663Z,28.97
2022-08-16T14:02:13.703Z,28.60
2022-08-16T14:07:19.952Z,26.83
2022-08-16T14:12:31.204Z,27.62
2022-08-16T14:18:01.819Z,28.99
2022-08-16T14:22:56.197Z,28.13
2022-08-16T14:27:57.747Z,30.26
2022-08-16T14:32:59.300Z,28.09
2022-08-16T14:38:02.162Z,27.38
2022-08-16T14:43:07.080Z,25.22
2022-08-16T14:48:09.185Z,26.23
2022-08-16T14:53:10.796Z,25.97
2022-08-16T14:58:18.724Z,27.06
2022-08-16T15:03:21.511Z,29.20
2022-08-16T15:08:36.285Z,28.08
2022-08-16T15:13:39.125Z,29.26
2022-08-16T15:18:40.693Z,29.53
2022-08-16T15:23:42.842Z,30.67
2022-08-16T15:28:46.007Z,30.87
2022-08-16T15:33:56.624Z,30.37
2022-08-16T15:39:06.859Z,30.91
2022-08-16T15:44:26.282Z,30.32
2022-08-16T15:49:37.142Z,30.57
2022-08-16T15:54:52.594Z,29.71
2022-08-16T16:00:04.058Z,30.30
2022-08-16T16:05:13.868Z,30.06
2022-08-16T16:10:15.444Z,30.53
2022-08-16T16:15:20.290Z,31.23
2022-08-16T16:20:27.924Z,32.00
2022-08-16T16:25:32.218Z,32.69
2022-08-16T16:30:44.579Z,32.29
2022-08-16T16:35:47.388Z,32.20
2022-08-16T16:40:58.618Z,32.00
2022-08-16T16:46:03.268Z,32.39
2022-08-16T16:51:28.140Z,32.58
2022-08-16T16:56:36.918Z,32.63
2022-08-16T17:01:57.512Z,33.28
2022-08-16T17:07:03.515Z,33.01
2022-08-16T17:12:05.799Z,33.18
2022-08-16T17:17:09.065Z,32.78
2022-08-16T17:22:14.526Z,32.52
2022-08-16T17:27:17.895Z,32.04
2022-08-16T17:32:33.914Z,31.75
2022-08-16T17:37:51.008Z,32.69
2022-08-16T17:42:54.693Z,34.36
2022-08-16T17:47:56.495Z,36.04
2022-08-16T17:52:58.207Z,37.19
2022-08-16T17:58:00.238Z,36.89
2022-08-16T18:03:01.780Z,38.06
2022-08-16T18:08:03.531Z,38.86
2022-08-16T18:13:05.109Z,40.04
2022-08-16T18:18:09.382Z,40.03
2022-08-16T18:23:15.193Z,40.83
2022-08-16T18:28:20.333Z,40.92
2022-08-16T18:33:24.152Z,42.26
2022-08-16T18:38:26.093Z,43.14
2022-08-16T18:44:22.587Z,43.52
2022-08-16T18:48:50.488Z,44.24
2022-08-16T18:53:52.217Z,43.41
2022-08-16T18:58:53.767Z,45.55
2022-08-16T19:03:55.332Z,47.17
2022-08-16T19:08:56.915Z,48.23
2022-08-16T19:13:58.608Z,49.53
2022-08-16T19:19:00.194Z,49.78
2022-08-16T19:24:01.980Z,50.38
2022-08-16T19:29:08.265Z,50.70
2022-08-16T19:34:10.315Z,50.37
2022-08-16T19:39:15.205Z,49.97
2022-08-16T19:44:17.061Z,50.34
2022-08-16T19:49:18.704Z,50.40
2022-08-16T19:54:20.390Z,51.48
2022-08-16T19:59:39.053Z,52.35
2022-08-16T20:04:42.363Z,51.16
2022-08-16T20:09:48.058Z,49.66
2022-08-16T20:14:52.066Z,48.85
2022-08-16T20:19:53.636Z,48.45
2022-08-16T20:24:55.629Z,48.37
2022-08-16T20:29:57.395Z,48.83
2022-08-16T20:34:58.998Z,49.17
2022-08-16T20:40:27.197Z,49.99
2022-08-16T20:45:22.182Z,50.39
2022-08-16T20:50:28.846Z,51.50
2022-08-16T20:55:33.316Z,51.98
2022-08-16T21:00:35.041Z,52.10
2022-08-16T21:05:37.156Z,52.76
2022-08-16T21:10:38.810Z,53.93
2022-08-16T21:15:40.347Z,55.59
2022-08-16T21:20:42.056Z,57.56
2022-08-16T21:25:57.695Z,59.69
2022-08-16T21:31:00.261Z,60.63
2022-08-16T21:36:01.821Z,60.38
2022-08-16T21:41:06.058Z,61.53
2022-08-16T21:46:08.623Z,61.69
2022-08-16T21:51:12.932Z,61.85
2022-08-16T21:56:16.788Z,61.88
2022-08-16T22:01:19.257Z,61.04
2022-08-16T22:06:20.837Z,61.27
2022-08-16T22:11:25.169Z,61.16
2022-08-16T22:16:29.109Z,61.03
2022-08-16T22:21:32.073Z,62.31
2022-08-16T22:26:39.583Z,64.21
2022-08-16T22:31:44.776Z,65.23
2022-08-16T22:36:47.470Z,64.92
2022-08-16T22:41:49.004Z,65.42
2022-08-16T22:46:50.610Z,65.67
2022-08-16T22:51:52.387Z,66.97
2022-08-16T22:56:54.053Z,66.89
2022-08-16T23:01:56.119Z,67.55
2022-08-16T23:06:57.866Z,67.79
2022-08-16T23:12:04.303Z,68.62
2022-08-16T23:17:06.001Z,68.18
2022-08-16T23:22:07.545Z,68.35
2022-08-16T23:27:09.289Z,68.55
2022-08-16T23:32:11.744Z,70.77
2022-08-16T23:37:13.303Z,70.72
2022-08-16T23:42:15.399Z,71.65
2022-08-16T23:47:37.037Z,72.67
2022-08-16T23:52:54.025Z,74.34
2022-08-16T23:57:57.229Z,75.45
